Thursday, July 18, 2019, 9:32 AM EDT
Back to Local

KMTP, Montauk Airport

Location: Montauk, NY, United States Lat: 41.067
Local Time: 9:32 AM EDT (13:32 GMT) Lon: -71.917
Time Zone: US/Eastern Elev: 6 ft

Show me the last for .
Show Decoded

2019-07-18 08:54 METAR KMTP 181254Z AUTO 18003KT 23/22 A2995 RMK AO1 SLP140 T02280222 =
2019-07-18 07:54 METAR KMTP 181154Z AUTO 00000KT 23/22 A2994 RMK AO1 SLP138 P0002 60019 70062
                 T02280222 10228 20217 51003 =
2019-07-18 06:54 METAR KMTP 181054Z AUTO 00000KT 22/21 A2994 RMK AO1 SLP137 P0009 T02220211 =
2019-07-18 05:54 METAR KMTP 180954Z AUTO 00000KT 22/22 A2994 RMK AO1 SLP137 P0003 T02220217 =
2019-07-18 04:54 METAR KMTP 180854Z AUTO VRB04KT 22/21 A2993 RMK AO1 SLP135 P0005 60005 T02220211
                 53012 =
2019-07-18 03:54 METAR KMTP 180754Z AUTO VRB03KT 22/21 A2991 RMK AO1 SLP127 T02220211 =
2019-07-18 02:54 METAR KMTP 180654Z AUTO 21003KT 22/21 A2990 RMK AO1 SLP126 T02170206 =
2019-07-18 01:54 METAR KMTP 180554Z AUTO 17003KT 22/21 A2989 RMK AO1 SLP122 60043 T02220211 10261
                 20217 58012 =
2019-07-18 00:54 METAR KMTP 180454Z AUTO 00000KT 22/21 A2991 RMK AO1 SLP127 P0005 T02220211
                 402940217 =
2019-07-17 23:54 METAR KMTP 180354Z AUTO VRB03KT 22/21 A2992 RMK AO1 PRESFR SLP132 P0037
                 T02220211 =
2019-07-17 22:54 METAR KMTP 180254Z AUTO 29004KT 24/23 A2993 RMK AO1 SLP135 P0001 60001 T02390228
                 50008 =
2019-07-17 21:54 METAR KMTP 180154Z AUTO 00000KT 25/23 A2994 RMK AO1 SLP138 T02500233 =
2019-07-17 20:54 METAR KMTP 180054Z AUTO 07003KT 24/23 A2992 RMK AO1 SLP130 T02440228 =
2019-07-17 19:54 METAR KMTP 172354Z AUTO VRB05KT 26/24 A2991 RMK AO1 SLP127 T02560239 10289 20250
                 53007 =
2019-07-17 18:54 METAR KMTP 172254Z AUTO 23006KT 26/24 A2990 RMK AO1 SLP125 T02560239 =
2019-07-17 17:54 METAR KMTP 172154Z AUTO 22007KT 190V250 25/24 A2988 RMK AO1 SLP118 T02500239 =
2019-07-17 16:54 METAR KMTP 172054Z AUTO 21005KT 26/24 A2989 RMK AO1 SLP120 T02610239 58016 =
2019-07-17 15:54 METAR KMTP 171954Z AUTO 21006KT 26/23 A2990 RMK AO1 SLP126 T02610233 =
2019-07-17 14:54 METAR KMTP 171854Z AUTO 21007KT 26/23 A2993 RMK AO1 SLP134 T02610233 =
2019-07-17 13:54 METAR KMTP 171754Z AUTO 21006KT 29/24 A2993 RMK AO1 SLP136 T02890239 10294 20244
                 58013 =
2019-07-17 12:54 METAR KMTP 171654Z AUTO 21007KT 29/24 A2995 RMK AO1 SLP142 T02890239 =
2019-07-17 11:54 METAR KMTP 171554Z AUTO 21004KT 29/24 A2997 RMK AO1 SLP147 T02890239 =
2019-07-17 10:54 METAR KMTP 171454Z AUTO 21006KT 27/23 A2997 RMK AO1 SLP149 T02720233 57006 =
2019-07-17 09:54 METAR KMTP 171354Z AUTO 22007KT 27/24 A2998 RMK AO1 SLP151 T02720239 =

Support USWX by starting your Amazon purchase here.